Data for 04/01/2005

Time Sea-Level Adjusted Pressure Absolute Pressure Temperature Relative Humidity Dew Point   
(mb) (inHg) (mb) (inHg) (C) (F) (%) (C) (F)
00:05 1024 30.24 853 25.19 1.4 34.5 44 -9.5 14.9
00:10 1024 30.24 853 25.19 1.6 34.9 44 -9.4 15
00:15 1024 30.24 853 25.19 1.4 34.5 44 -9.5 14.9
00:20 1024 30.24 853 25.19 1.4 34.4 44 -9.7 14.6
00:25 1024 30.24 853 25.19 1.4 34.5 43 -9.8 14.3
00:30 1024 30.24 853 25.19 1.5 34.7 44 -9.6 14.8
00:35 1024 30.24 853 25.19 1.4 34.5 43 -9.8 14.3
00:40 1024 30.24 853 25.19 1.4 34.6 43 -9.8 14.3
00:45 1024 30.24 853 25.19 1.7 35 41 -10.1 13.7
00:50 1024 30.24 853 25.19 1.9 35.4 41 -10.1 13.8
00:55 1024 30.24 853 25.19 1.8 35.2 41 -10 13.9
01:00 1024 30.24 853 25.19 1.7 35 41 -10.3 13.5
01:05 1024 30.24 853 25.19 1.9 35.3 40 -10.4 13.2
01:10 1024 30.24 853 25.19 2 35.6 40 -10.4 13.3
01:15 1024 30.24 853 25.19 2 35.6 40 -10.3 13.4
01:20 1024 30.24 853 25.19 1.7 35 43 -9.7 14.5
01:25 1024 30.24 853 25.19 1.6 34.8 40 -10.5 13
01:30 1024 30.24 853 25.19 2 35.5 40 -10.4 13.3
01:35 1024 30.24 853 25.19 1.9 35.4 41 -10 14.1
01:40 1024 30.24 853 25.19 1.7 35 45 -9 15.9
01:45 1024 30.24 853 25.19 0.9 33.6 46 -9.5 15
01:50 1024 30.24 853 25.19 1.3 34.4 42 -10.3 13.4
01:55 1024 30.24 853 25.19 2 35.6 39 -10.4 13.3
02:00 1024 30.24 853 25.19 1.8 35.3 42 -9.9 14.2
02:05 1024 30.24 853 25.19 1.9 35.4 40 -10.3 13.5
02:10 1023 30.21 853 25.19 1.7 35 42 -10 14
02:15 1023 30.21 853 25.19 1.4 34.5 43 -9.8 14.3
02:20 1023 30.21 853 25.19 1.1 34 45 -9.5 14.9
02:25 1023 30.21 853 25.19 0.8 33.5 46 -9.6 14.8
02:30 1023 30.21 853 25.19 1 33.8 43 -10.1 13.8
02:35 1023 30.21 853 25.19 1.2 34.2 43 -10.1 13.8
02:40 1023 30.21 852 25.16 1.5 34.7 41 -10.3 13.5
02:45 1023 30.21 852 25.16 1.7 35 42 -10.1 13.9
02:50 1023 30.21 852 25.16 1.6 34.8 41 -10.4 13.3
02:55 1023 30.21 852 25.16 1.9 35.4 39 -10.7 12.8
03:00 1023 30.21 852 25.16 2.1 35.7 39 -10.6 12.9
03:05 1023 30.21 852 25.16 2.3 36.1 39 -10.4 13.2
03:10 1023 30.21 852 25.16 2.1 35.8 40 -10.3 13.5
03:15 1023 30.21 852 25.16 2 35.5 42 -9.7 14.6
03:20 1023 30.21 852 25.16 1.5 34.7 45 -9.1 15.7
03:25 1023 30.21 852 25.16 1.4 34.4 44 -9.6 14.6
03:30 1023 30.21 852 25.16 1.3 34.4 45 -9.3 15.2
03:35 1023 30.21 852 25.16 1.4 34.5 47 -8.8 16.1
03:40 1023 30.21 852 25.16 1.1 34 49 -8.4 17
03:45 1023 30.21 852 25.16 0.8 33.4 51 -8.4 17
03:50 1023 30.21 852 25.16 0.7 33.2 49 -8.8 16.2
03:55 1023 30.21 852 25.16 0.7 33.3 49 -8.8 16.2
04:00 1023 30.21 852 25.16 0.8 33.4 49 -8.8 16.2
04:05 1023 30.21 852 25.16 0.7 33.3 49 -9 15.9
04:10 1023 30.21 852 25.16 0.8 33.4 48 -9.1 15.6
04:15 1023 30.21 852 25.16 1 33.8 47 -9.1 15.7
04:20 1023 30.21 852 25.16 1 33.8 48 -8.9 16
04:25 1023 30.21 852 25.16 1.1 34 48 -8.8 16.2
04:30 1023 30.21 852 25.16 1 33.7 49 -8.7 16.4
04:35 1023 30.21 852 25.16 0.9 33.7 48 -8.9 16
04:40 1023 30.21 852 25.16 1 33.8 48 -8.8 16.2
04:45 1023 30.21 852 25.16 1 33.9 48 -8.8 16.2
04:50 1023 30.21 852 25.16 0.9 33.6 50 -8.4 16.9
04:55 1023 30.21 852 25.16 0.9 33.6 48 -8.8 16.1
05:00 1023 30.21 852 25.16 0.9 33.7 49 -8.7 16.3
05:05 1023 30.21 852 25.16 1 33.7 49 -8.5 16.7
05:10 1023 30.21 852 25.16 0.9 33.6 49 -8.5 16.7
05:15 1023 30.21 852 25.16 1 33.7 49 -8.7 16.4
05:20 1023 30.21 852 25.16 0.9 33.6 50 -8.3 17.1
05:25 1023 30.21 852 25.16 0.7 33.2 52 -8 17.6
05:30 1023 30.21 852 25.16 0.5 32.9 54 -7.8 18
05:35 1023 30.21 852 25.16 0.6 33 53 -8.1 17.5
05:40 1023 30.21 852 25.16 0.7 33.2 52 -8.1 17.5
05:45 1023 30.21 852 25.16 0.7 33.3 50 -8.5 16.8
05:50 1022 30.18 852 25.16 0.9 33.7 49 -8.6 16.5
05:55 1022 30.18 852 25.16 1.1 33.9 48 -8.8 16.2
06:00 1022 30.18 852 25.16 1 33.9 49 -8.4 16.8
06:05 1023 30.21 852 25.16 0.8 33.5 51 -8.1 17.4
06:10 1023 30.21 852 25.16 0.8 33.4 51 -8.3 17
06:15 1022 30.18 852 25.16 0.9 33.6 49 -8.7 16.3
06:20 1022 30.18 852 25.16 1.1 34.1 47 -8.9 16
06:25 1022 30.18 852 25.16 1.3 34.3 47 -8.8 16.2
06:30 1022 30.18 852 25.16 1.4 34.4 47 -8.7 16.3
06:35 1022 30.18 852 25.16 1.3 34.4 49 -8.3 17.1
06:40 1022 30.18 851 25.13 1.1 33.9 52 -7.7 18.1
06:45 1022 30.18 851 25.13 0.6 33.1 53 -7.9 17.8
06:50 1022 30.18 852 25.16 0.8 33.4 52 -7.9 17.7
06:55 1022 30.18 852 25.16 1.1 33.9 50 -8.2 17.2
07:00 1022 30.18 852 25.16 1.6 34.9 48 -8.3 17
07:05 1022 30.18 852 25.16 1.9 35.5 46 -8.6 16.6
07:10 1022 30.18 852 25.16 2.2 36 45 -8.4 16.9
07:15 1022 30.18 852 25.16 2.4 36.4 42 -9.3 15.3
07:20 1022 30.18 852 25.16 2.6 36.6 44 -8.5 16.7
07:25 1022 30.18 852 25.16 2.8 37 43 -8.5 16.7
07:30 1022 30.18 851 25.13 3 37.5 42 -8.8 16.2
07:35 1022 30.18 851 25.13 3.3 38 42 -8.4 16.8
07:40 1022 30.18 851 25.13 3.6 38.4 40 -8.7 16.4
07:45 1022 30.18 851 25.13 3.8 38.8 40 -8.7 16.3
07:50 1022 30.18 851 25.13 3.9 39.1 39 -8.8 16.2
07:55 1022 30.18 851 25.13 4.3 39.8 39 -8.5 16.8
08:00 1022 30.18 851 25.13 4.8 40.7 36 -8.9 15.9
08:05 1022 30.18 851 25.13 5.4 41.6 35 -8.9 16
08:10 1022 30.18 851 25.13 5.6 42.1 34 -8.9 15.9
08:15 1022 30.18 851 25.13 5.7 42.3 35 -8.6 16.6
08:20 1022 30.18 851 25.13 5.8 42.4 34 -8.8 16.2
08:25 1022 30.18 851 25.13 5.9 42.7 33 -9.1 15.6
08:30 1022 30.18 851 25.13 6.2 43.1 33 -8.9 16
08:35 1022 30.18 851 25.13 6.7 44.1 32 -8.8 16.2
08:40 1022 30.18 851 25.13 7 44.5 30 -9.4 15
08:45 1021 30.15 851 25.13 7.7 45.8 30 -9 15.8
08:50 1021 30.15 851 25.13 7.8 46.1 29 -9.3 15.2
08:55 1021 30.15 850 25.1 8.2 46.7 29 -8.8 16.2
09:00 1021 30.15 850 25.1 8.9 48.1 28 -8.4 16.8
09:05 1021 30.15 850 25.1 9.1 48.4 28 -8.2 17.2
09:10 1021 30.15 850 25.1 9 48.2 28 -8.5 16.6
09:15 1021 30.15 850 25.1 9.5 49.1 28 -8.2 17.2
09:20 1021 30.15 850 25.1 9.9 49.9 28 -7.6 18.4
09:25 1021 30.15 850 25.1 10.4 50.6 29 -6.8 19.7
09:30 1021 30.15 850 25.1 10.1 50.2 29 -7 19.4
09:35 1021 30.15 850 25.1 10.9 51.5 28 -6.7 19.9
09:40 1021 30.15 850 25.1 11 51.8 28 -7 19.5
09:45 1021 30.15 850 25.1 10.5 50.9 28 -7.2 19
09:50 1021 30.15 850 25.1 11.2 52.2 27 -6.9 19.6
09:55 1021 30.15 850 25.1 11.3 52.4 26 -7.4 18.7
10:00 1021 30.15 850 25.1 11.8 53.2 24 -8 17.5
10:05 1021 30.15 850 25.1 11.9 53.3 23 -8.7 16.4
10:10 1021 30.15 850 25.1 11.5 52.7 23 -9.1 15.6
10:15 1021 30.15 850 25.1 11.9 53.5 21 -9.6 14.8
10:20 1021 30.15 850 25.1 12 53.7 23 -8.6 16.4
10:25 1021 30.15 850 25.1 11.7 53.1 23 -8.6 16.5
10:30 1021 30.15 850 25.1 11.9 53.5 23 -8.5 16.6
10:35 1021 30.15 850 25.1 11.5 52.6 25 -7.9 17.8
10:40 1021 30.15 850 25.1 11 51.9 26 -7.9 17.7
10:45 1021 30.15 850 25.1 10.3 50.5 27 -8.1 17.4
10:50 1021 30.15 850 25.1 10.5 51 26 -8.3 17.1
10:55 1021 30.15 850 25.1 10.6 51.1 26 -8 17.7
11:00 1021 30.15 850 25.1 10.3 50.6 28 -7.4 18.7
11:05 1021 30.15 850 25.1 10.4 50.7 29 -6.7 19.9
11:10 1021 30.15 850 25.1 10.5 50.8 29 -6.7 20
11:15 1021 30.15 850 25.1 10.5 51 29 -6.6 20.1
11:20 1021 30.15 850 25.1 10.6 51.2 29 -6.7 19.9
11:25 1021 30.15 850 25.1 10.9 51.7 28 -6.9 19.6
11:30 1020 30.12 850 25.1 11.7 53 27 -6.8 19.7
11:35 1020 30.12 850 25.1 11.9 53.4 26 -6.9 19.5
11:40 1020 30.12 849 25.07 11.9 53.4 25 -7.3 18.9
11:45 1020 30.12 849 25.07 11.8 53.3 26 -7 19.3
11:50 1020 30.12 849 25.07 11.6 52.8 26 -7.4 18.7
11:55 1020 30.12 849 25.07 11.4 52.5 26 -7.5 18.6
12:00 1020 30.12 849 25.07 11.4 52.5 27 -6.8 19.7
12:05 1020 30.12 849 25.07 11.6 52.8 26 -7.1 19.3
12:10 1020 30.12 849 25.07 11.9 53.5 26 -6.8 19.8
12:15 1019 30.09 849 25.07 11.9 53.4 25 -7.4 18.6
12:20 1019 30.09 848 25.04 11 51.9 27 -7.3 18.8
12:25 1019 30.09 848 25.04 11.3 52.4 27 -6.8 19.7
12:30 1019 30.09 848 25.04 12.4 54.2 26 -6.7 20
12:35 1019 30.09 848 25.04 13.1 55.5 24 -6.7 19.9
12:40 1019 30.09 848 25.04 13.9 57 23 -6.9 19.5
12:45 1019 30.09 848 25.04 14.5 58.1 23 -6.1 21.1
12:50 1018 30.06 848 25.04 15.1 59.1 23 -6.1 21
12:55 1018 30.06 848 25.04 15.3 59.5 22 -6.2 20.8
13:00 1018 30.06 848 25.04 15.1 59.1 23 -5.7 21.7
13:05 1018 30.06 847 25.01 14.8 58.6 23 -6 21.2
13:10 1018 30.06 847 25.01 16 60.8 22 -5.7 21.7
13:15 1018 30.06 847 25.01 15.7 60.3 25 -4.3 24.3
13:20 1018 30.06 847 25.01 15.4 59.8 23 -5.6 21.9
13:25 1018 30.06 847 25.01 14.6 58.2 25 -5.1 22.8
13:30 1018 30.06 847 25.01 13.7 56.7 25 -5.7 21.7
13:35 1018 30.06 847 25.01 14.5 58.2 24 -5.5 22.1
13:40 1018 30.06 847 25.01 15 59.1 23 -5.7 21.7
13:45 1018 30.06 847 25.01 15.8 60.4 23 -5 23
13:50 1018 30.06 847 25.01 15.9 60.5 24 -4.7 23.6
13:55 1017 30.03 847 25.01 15.7 60.3 23 -5.4 22.2
14:00 1017 30.03 847 25.01 15.5 60 23 -5.2 22.7
14:05 1017 30.03 847 25.01 15 59 23 -5.9 21.4
14:10 1017 30.03 847 25.01 14.3 57.8 24 -5.9 21.4
14:15 1017 30.03 846 24.98 14.6 58.3 24 -5.5 22.2
14:20 1017 30.03 846 24.98 14.7 58.4 24 -5.8 21.5
14:25 1017 30.03 846 24.98 14.7 58.4 24 -5.5 22
14:30 1017 30.03 846 24.98 14.8 58.7 23 -6.1 21.1
14:35 1017 30.03 846 24.98 14.7 58.5 24 -5.7 21.8
14:40 1017 30.03 846 24.98 14.7 58.4 24 -5.4 22.2
14:45 1017 30.03 846 24.98 14.7 58.4 24 -5.4 22.3
14:50 1017 30.03 846 24.98 14.3 57.8 24 -5.7 21.8
14:55 1017 30.03 846 24.98 14.3 57.7 25 -5.6 21.9
15:00 1017 30.03 846 24.98 14 57.2 24 -5.9 21.3
15:05 1017 30.03 846 24.98 13.8 56.9 24 -6.1 21.1
15:10 1016 30 846 24.98 14 57.1 24 -6.1 21
15:15 1016 30 846 24.98 14.1 57.3 24 -5.9 21.3
15:20 1016 30 845 24.95 14.3 57.8 24 -6 21.2
15:25 1016 30 845 24.95 14.4 58 24 -6 21.3
15:30 1016 30 845 24.95 14.8 58.6 23 -6 21.3
15:35 1016 30 845 24.95 14.6 58.4 24 -5.6 21.9
15:40 1016 30 845 24.95 14.6 58.2 24 -5.6 21.9
15:45 1016 30 845 24.95 14.5 58.1 24 -5.6 21.9
15:50 1016 30 845 24.95 14 57.2 24 -6.2 20.8
15:55 1016 30 845 24.95 13.7 56.6 24 -6.5 20.2
16:00 1016 30 845 24.95 13.6 56.4 23 -6.9 19.6
16:05 1016 30 845 24.95 13.5 56.2 23 -7.3 18.9
16:10 1016 30 845 24.95 13.4 56.1 24 -6.9 19.5
16:15 1016 30 845 24.95 13.4 56.1 23 -7.3 18.8
16:20 1015 29.97 845 24.95 13.5 56.2 23 -7.2 19.1
16:25 1015 29.97 845 24.95 13.5 56.2 22 -7.8 18
16:30 1015 29.97 845 24.95 13.4 56.1 23 -7.4 18.7
16:35 1015 29.97 845 24.95 13.4 56.1 24 -6.9 19.5
16:40 1015 29.97 845 24.95 13.3 56 24 -7 19.4
16:45 1015 29.97 844 24.92 13.2 55.7 24 -6.8 19.7
16:50 1015 29.97 844 24.92 13.2 55.8 24 -6.8 19.7
16:55 1015 29.97 844 24.92 13 55.4 25 -6.5 20.2
17:00 1015 29.97 844 24.92 12.8 55.1 25 -6.7 19.9
17:05 1015 29.97 844 24.92 12.9 55.2 24 -7.1 19.2
17:10 1015 29.97 844 24.92 12.8 55 26 -6.5 20.4
17:15 1015 29.97 844 24.92 12.7 54.8 25 -6.9 19.5
17:20 1015 29.97 844 24.92 12.7 54.8 24 -7.6 18.4
17:25 1015 29.97 844 24.92 12.8 55 25 -6.8 19.7
17:30 1015 29.97 844 24.92 12.5 54.6 25 -7.1 19.1
17:35 1015 29.97 844 24.92 12.6 54.6 24 -7.6 18.4
17:40 1015 29.97 844 24.92 12.6 54.6 22 -8.6 16.4
17:45 1015 29.97 844 24.92 12.5 54.5 24 -7.6 18.3
17:50 1015 29.97 844 24.92 12.1 53.8 27 -6.2 20.8
17:55 1015 29.97 844 24.92 11.9 53.3 26 -7.3 18.9
18:00 1015 29.97 844 24.92 12.1 53.7 23 -8.1 17.4
18:05 1015 29.97 844 24.92 12.2 54 24 -7.7 18.1
18:10 1015 29.97 844 24.92 12.2 54 24 -7.7 18.1
18:15 1015 29.97 844 24.92 12.4 54.3 24 -7.7 18.1
18:20 1015 29.97 844 24.92 12.5 54.5 24 -7.4 18.7
18:25 1015 29.97 844 24.92 12.4 54.3 25 -7.3 18.9
18:30 1015 29.97 844 24.92 12.3 54.2 25 -7 19.3
18:35 1015 29.97 844 24.92 12.1 53.9 27 -6.4 20.5
18:40 1015 29.97 844 24.92 11.9 53.3 27 -6.5 20.4
18:45 1015 29.97 844 24.92 11.7 53.1 26 -7.4 18.7
18:50 1015 29.97 844 24.92 11.7 53.1 26 -7.1 19.3
18:55 1015 29.97 844 24.92 11.6 52.9 26 -7.1 19.2
19:00 1015 29.97 844 24.92 11.5 52.8 26 -7.5 18.5
19:05 1015 29.97 844 24.92 11.5 52.7 27 -6.7 19.9
19:10 1015 29.97 845 24.95 11.1 52 28 -6.6 20
19:15 1015 29.97 845 24.95 10.9 51.6 28 -6.8 19.8
19:20 1015 29.97 845 24.95 10.8 51.4 28 -6.9 19.6
19:25 1015 29.97 845 24.95 10.7 51.2 28 -7 19.4
19:30 1015 29.97 845 24.95 10.8 51.5 26 -8 17.6
19:35 1016 30 845 24.95 10.9 51.6 27 -7.3 18.8
19:40 1016 30 845 24.95 10.8 51.4 27 -7.5 18.5
19:45 1016 30 845 24.95 10.4 50.6 31 -5.9 21.3
19:50 1016 30 845 24.95 9.8 49.7 30 -6.8 19.7
19:55 1016 30 845 24.95 9.3 48.8 34 -5.5 22
20:00 1016 30 845 24.95 9.2 48.6 32 -6.5 20.4
20:05 1016 30 845 24.95 9.7 49.4 30 -7.1 19.1
20:10 1016 30 845 24.95 9.6 49.3 32 -6.4 20.5
20:15 1016 30 845 24.95 9.2 48.5 29 -7.9 17.8
20:20 1016 30 845 24.95 9.7 49.4 30 -7.1 19.2
20:25 1016 30 845 24.95 9.5 49 30 -7.2 19
20:30 1016 30 845 24.95 9.5 49 30 -7.3 18.8
20:35 1016 30 845 24.95 9.3 48.7 30 -7.4 18.7
20:40 1016 30 845 24.95 8.8 47.9 32 -7 19.4
20:45 1016 30 845 24.95 8.1 46.5 33 -7.1 19.3
20:50 1016 30 845 24.95 8.4 47.2 31 -7.6 18.4
20:55 1016 30 845 24.95 8.7 47.7 30 -7.9 17.8
21:00 1016 30 845 24.95 9 48.3 30 -7.7 18.2
21:05 1016 30 845 24.95 9.1 48.4 30 -7.7 18.1
21:10 1016 30 845 24.95 9 48.2 30 -7.6 18.3
21:15 1016 30 845 24.95 8.9 48 31 -7.5 18.6
21:20 1016 30 845 24.95 9 48.2 29 -7.9 17.8
21:25 1016 30 845 24.95 9.2 48.5 30 -7.6 18.3
21:30 1016 30 845 24.95 9.2 48.5 30 -7.5 18.5
21:35 1016 30 845 24.95 9.2 48.5 30 -7.4 18.7
21:40 1016 30 845 24.95 8.9 48.1 32 -6.9 19.6
21:45 1016 30 845 24.95 8.5 47.3 32 -7.1 19.2
21:50 1016 30 845 24.95 8.5 47.3 32 -7.3 18.9
21:55 1016 30 845 24.95 8.5 47.3 32 -7.4 18.7
22:00 1016 30 845 24.95 8.9 48 30 -7.7 18.2
22:05 1016 30 845 24.95 9.2 48.5 31 -7.1 19.2
22:10 1016 30 845 24.95 9 48.2 31 -7.2 19
22:15 1016 30 845 24.95 8.9 48 32 -6.9 19.5
22:20 1016 30 845 24.95 8.7 47.6 33 -6.6 20.2
22:25 1016 30 845 24.95 8.4 47 33 -6.9 19.7
22:30 1016 30 845 24.95 8.4 47.2 34 -6.7 19.9
22:35 1016 30 845 24.95 8.4 47.1 35 -6.4 20.5
22:40 1016 30 845 24.95 8.1 46.5 36 -6.1 21
22:45 1016 30 845 24.95 7.9 46.3 38 -5.7 21.8
22:50 1016 30 845 24.95 7.8 46 38 -5.6 22
22:55 1016 30 845 24.95 7.7 45.8 39 -5.5 22
23:00 1016 30 845 24.95 7.7 45.8 39 -5.3 22.4
23:05 1016 30 845 24.95 7.5 45.5 40 -5.1 22.8
23:10 1016 30 846 24.98 7.4 45.3 41 -5.1 22.8
23:15 1016 30 846 24.98 7.4 45.2 41 -5 23
23:20 1016 30 846 24.98 7.4 45.3 38 -5.9 21.4
23:25 1016 30 846 24.98 8 46.3 36 -6.3 20.6
23:30 1016 30 846 24.98 8.3 47 35 -6.2 20.8
23:35 1016 30 845 24.95 8.6 47.5 37 -5.2 22.7
23:40 1016 30 845 24.95 8.7 47.7 36 -5.5 22.1
23:45 1016 30 845 24.95 8.8 47.8 35 -5.7 21.8
23:50 1016 30 845 24.95 8.8 47.8 36 -5.4 22.3
23:55 1016 30 845 24.95 8.6 47.5 36 -5.8 21.6
24:00 1016 30 845 24.95 8.7 47.6 35 -5.8 21.5